Time;durP1;ratioP1;P1;durP2;ratioP2;P2;SDS_P1;SDS_P2;PMS_P1;PMS_P2;Temp;Humidity;BMP_temperature;BMP_pressure;BME280_temperature;BME280_humidity;BME280_pressure;Samples;Min_cycle;Max_cycle;Signal;HPM_P1;HPM_P2
2023/05/15 00:00:14;;;;;;;15.63;8.20;;;;;;;16.64;74.68;99196.47;5054373;28;20198;-93
2023/05/15 00:02:40;;;;;;;12.17;7.07;;;;;;;16.57;74.52;99198.72;5053987;28;20276;-95
2023/05/15 00:05:07;;;;;;;14.93;7.47;;;;;;;16.53;74.68;99198.09;5076621;28;20189;-94
2023/05/15 00:07:34;;;;;;;12.80;6.63;;;;;;;16.61;74.78;99199.34;5035730;28;20206;-94
2023/05/15 00:10:01;;;;;;;12.50;7.17;;;;;;;16.68;74.42;99197.91;5067417;28;20216;-93
2023/05/15 00:12:28;;;;;;;13.27;7.77;;;;;;;16.69;74.32;99195.16;5033895;28;20181;-94
2023/05/15 00:14:53;;;;;;;12.63;7.60;;;;;;;16.69;74.19;99202.25;5034037;28;20283;-93
2023/05/15 00:17:20;;;;;;;12.73;8.33;;;;;;;16.65;74.15;99203.44;5033968;28;20216;-94
2023/05/15 00:19:47;;;;;;;11.50;7.47;;;;;;;16.58;74.44;99197.78;5034131;28;20190;-94
2023/05/15 00:22:13;;;;;;;14.50;7.60;;;;;;;16.58;74.50;99197.78;5034674;28;20610;-93
2023/05/15 00:24:40;;;;;;;11.00;6.97;;;;;;;16.61;74.46;99186.13;5033610;28;20638;-94
2023/05/15 00:27:07;;;;;;;10.50;6.17;;;;;;;16.63;74.65;99184.19;5033378;28;20300;-93
2023/05/15 00:29:34;;;;;;;12.50;6.67;;;;;;;16.66;74.30;99176.03;5033521;28;20200;-92
2023/05/15 00:31:59;;;;;;;9.20;6.07;;;;;;;16.73;74.20;99170.13;5034389;28;20280;-93
2023/05/15 00:34:25;;;;;;;13.90;6.13;;;;;;;16.75;73.54;99172.66;5034252;28;20213;-94
2023/05/15 00:36:51;;;;;;;9.87;6.30;;;;;;;16.73;73.66;99164.84;5049913;28;20177;-93
2023/05/15 00:39:18;;;;;;;9.27;6.20;;;;;;;16.70;73.70;99158.94;5053201;28;20240;-93
2023/05/15 00:41:47;;;;;;;15.20;6.50;;;;;;;16.66;73.74;99157.50;5053221;28;20196;-92
2023/05/15 00:44:16;;;;;;;11.63;5.97;;;;;;;16.66;73.66;99162.78;5053147;28;20185;-93
2023/05/15 00:46:44;;;;;;;15.07;6.17;;;;;;;16.75;73.18;99162.06;5071793;28;20234;-93
2023/05/15 00:49:13;;;;;;;10.00;6.10;;;;;;;16.73;72.53;99150.75;5073023;28;20195;-93
2023/05/15 00:51:42;;;;;;;9.70;6.60;;;;;;;16.71;72.18;99150.88;5073547;28;20211;-93
2023/05/15 00:54:10;;;;;;;12.87;6.47;;;;;;;16.65;72.20;99166.38;5059075;28;20201;-93
2023/05/15 00:56:38;;;;;;;10.27;6.47;;;;;;;16.59;72.26;99167.69;5069629;28;20245;-92
2023/05/15 00:59:06;;;;;;;10.27;6.00;;;;;;;16.58;72.06;99160.72;5052815;28;20240;-93
2023/05/15 01:01:33;;;;;;;10.47;7.00;;;;;;;16.57;72.41;99159.88;5053597;28;20200;-92
2023/05/15 01:04:03;;;;;;;10.43;6.40;;;;;;;16.61;71.92;99159.66;5053793;28;20223;-92
2023/05/15 01:06:30;;;;;;;9.97;6.13;;;;;;;16.56;72.35;99163.47;5053537;28;20200;-92
2023/05/15 01:09:00;;;;;;;10.47;6.40;;;;;;;16.56;71.99;99158.19;5053093;28;20188;-94
2023/05/15 01:11:35;;;;;;;8.43;6.27;;;;;;;16.57;71.96;99148.44;5052578;28;20179;-93
2023/05/15 01:14:06;;;;;;;11.43;6.53;;;;;;;16.57;71.67;99154.59;5055019;28;20170;-93
2023/05/15 01:16:34;;;;;;;10.80;6.40;;;;;;;16.52;71.54;99146.16;5072750;28;20174;-93
2023/05/15 01:19:02;;;;;;;11.40;6.97;;;;;;;16.50;71.54;99137.47;5072566;28;20183;-94
2023/05/15 01:21:37;;;;;;;11.77;7.73;;;;;;;16.39;71.94;99128.66;5072618;28;20249;-93
2023/05/15 01:24:39;;;;;;;11.97;6.67;;;;;;;16.40;72.05;99131.19;5064275;28;20265;-94
2023/05/15 01:27:43;;;;;;;12.97;7.67;;;;;;;16.36;72.29;99123.59;5052701;28;20208;-93
2023/05/15 01:30:33;;;;;;;10.77;6.30;;;;;;;16.20;72.69;99125.72;5052659;28;20171;-93
2023/05/15 01:33:17;;;;;;;16.13;7.63;;;;;;;16.07;72.62;99109.94;5052704;28;20171;-92
2023/05/15 01:36:04;;;;;;;13.90;7.03;;;;;;;15.97;73.79;99106.31;5052681;28;20240;-93
2023/05/15 01:38:43;;;;;;;13.80;7.73;;;;;;;15.99;73.32;99107.03;5052561;28;20279;-93
2023/05/15 01:41:34;;;;;;;10.23;7.33;;;;;;;15.87;73.60;99105.31;5052658;28;20165;-94
2023/05/15 01:44:10;;;;;;;12.40;7.93;;;;;;;15.89;73.74;99096.31;5053919;28;20673;-93
2023/05/15 01:46:41;;;;;;;13.30;7.47;;;;;;;16.00;73.53;99090.22;5052626;28;20212;-93
2023/05/15 01:49:09;;;;;;;12.23;7.70;;;;;;;16.00;73.37;99092.84;5052508;28;20185;-95
2023/05/15 01:51:37;;;;;;;15.33;8.60;;;;;;;15.95;73.31;99095.00;5071940;28;20581;-94
2023/05/15 01:54:06;;;;;;;13.27;8.10;;;;;;;15.87;73.55;99102.66;5072506;28;20623;-93
2023/05/15 01:56:35;;;;;;;11.73;7.33;;;;;;;15.80;73.88;99112.03;5072308;28;20542;-94
2023/05/15 01:59:03;;;;;;;12.13;7.27;;;;;;;15.86;73.68;99112.41;5072972;28;20225;-93
2023/05/15 02:01:31;;;;;;;10.93;6.47;;;;;;;15.97;73.32;99108.94;5072396;28;20193;-94
2023/05/15 02:04:00;;;;;;;12.87;7.90;;;;;;;16.02;73.27;99114.72;5069058;28;20273;-94
2023/05/15 02:06:28;;;;;;;13.13;7.60;;;;;;;15.91;73.02;99106.75;5054640;28;20205;-94
2023/05/15 02:08:57;;;;;;;19.23;7.73;;;;;;;15.86;73.25;99098.31;5056850;28;20178;-94
2023/05/15 02:11:23;;;;;;;16.57;7.67;;;;;;;15.91;73.33;99096.19;5072580;28;20187;-93
2023/05/15 02:13:50;;;;;;;17.17;7.87;;;;;;;15.98;72.85;99073.63;5056075;28;20189;-94
2023/05/15 02:16:16;;;;;;;12.10;7.17;;;;;;;16.02;72.32;99064.50;5056883;28;20638;-94
2023/05/15 02:18:43;;;;;;;10.67;7.13;;;;;;;15.96;72.51;99079.03;5056029;28;20179;-94
2023/05/15 02:21:08;;;;;;;13.07;7.17;;;;;;;16.04;72.12;99091.66;5055945;28;20634;-94
2023/05/15 02:23:35;;;;;;;16.27;8.43;;;;;;;16.04;72.20;99080.25;5056673;28;20262;-94
2023/05/15 02:26:29;;;;;;;12.23;7.13;;;;;;;16.04;72.21;99086.38;5056592;28;20262;-94
2023/05/15 02:29:19;;;;;;;9.83;6.63;;;;;;;16.04;71.90;99089.00;5055784;28;20177;-94
2023/05/15 02:32:06;;;;;;;11.20;7.43;;;;;;;15.99;72.08;99080.59;5056011;28;20200;-94
2023/05/15 02:34:42;;;;;;;10.70;6.53;;;;;;;15.97;72.22;99071.94;5055701;28;20173;-95
2023/05/15 02:37:13;;;;;;;12.87;7.07;;;;;;;15.88;72.28;99062.03;5055711;28;20229;-94
2023/05/15 02:39:42;;;;;;;11.20;7.20;;;;;;;15.82;72.43;99065.16;5072451;28;20166;-94
2023/05/15 02:42:11;;;;;;;13.57;8.23;;;;;;;15.81;72.51;99071.41;5052233;28;20278;-93
2023/05/15 02:44:40;;;;;;;11.67;7.80;;;;;;;15.88;72.69;99062.88;5035576;28;20681;-93
2023/05/15 02:47:08;;;;;;;14.90;8.17;;;;;;;15.89;72.62;99069.03;5036193;28;20202;-94
2023/05/15 02:49:35;;;;;;;11.20;6.63;;;;;;;15.92;72.63;99060.88;5043591;28;20196;-94
2023/05/15 02:52:02;;;;;;;11.30;6.87;;;;;;;15.94;72.85;99056.31;5056234;28;20171;-94
2023/05/15 02:54:28;;;;;;;10.73;6.77;;;;;;;15.95;72.89;99053.56;5055221;28;20182;-92
2023/05/15 02:56:56;;;;;;;9.87;6.70;;;;;;;15.96;72.69;99052.59;5055097;28;20175;-92
2023/05/15 02:59:21;;;;;;;12.63;6.73;;;;;;;15.94;72.96;99058.94;5055091;28;20234;-93
2023/05/15 03:01:47;;;;;;;8.60;5.50;;;;;;;15.87;72.96;99061.22;5055229;28;20180;-94
2023/05/15 03:04:14;;;;;;;13.60;5.90;;;;;;;15.93;73.25;99050.16;5054984;28;20564;-93
2023/05/15 03:06:41;;;;;;;9.83;6.23;;;;;;;16.05;72.86;99064.28;5054887;28;20777;-93
2023/05/15 03:09:08;;;;;;;9.53;6.30;;;;;;;16.13;72.45;99076.91;5054995;28;20547;-94
2023/05/15 03:11:35;;;;;;;8.40;5.23;;;;;;;16.14;72.24;99058.25;5055076;28;20179;-94
2023/05/15 03:14:01;;;;;;;8.97;5.80;;;;;;;16.13;72.76;99069.81;5054954;28;20183;-92
2023/05/15 03:16:27;;;;;;;9.30;6.37;;;;;;;16.14;72.22;99076.78;5054709;28;20652;-92
2023/05/15 03:18:54;;;;;;;11.83;6.23;;;;;;;16.22;71.39;99078.88;5054052;28;20184;-94
2023/05/15 03:21:19;;;;;;;11.23;6.70;;;;;;;16.24;71.06;99072.50;5054810;28;20317;-94
2023/05/15 03:23:46;;;;;;;10.70;6.77;;;;;;;16.22;70.79;99084.97;5055250;28;20615;-94
2023/05/15 03:26:16;;;;;;;12.00;7.27;;;;;;;16.12;71.31;99084.00;5054893;28;20273;-95
2023/05/15 03:28:42;;;;;;;12.20;7.07;;;;;;;15.99;71.55;99073.50;5054632;28;20190;-94
2023/05/15 03:31:09;;;;;;;11.50;6.97;;;;;;;15.87;72.01;99073.59;5051791;28;20175;-93
2023/05/15 03:33:37;;;;;;;17.80;8.13;;;;;;;15.85;72.61;99075.50;5034638;28;20186;-93
2023/05/15 03:36:04;;;;;;;14.13;7.23;;;;;;;15.77;72.68;99070.81;5034614;28;20190;-93
2023/05/15 03:38:31;;;;;;;10.90;7.23;;;;;;;15.79;73.01;99086.53;5034627;28;20183;-94
2023/05/15 03:40:58;;;;;;;16.53;8.83;;;;;;;15.70;74.52;99081.91;5058707;28;20619;-94
2023/05/15 03:43:25;;;;;;;15.80;8.80;;;;;;;15.73;74.40;99086.97;5071302;28;20528;-94
2023/05/15 03:45:50;;;;;;;16.17;9.17;;;;;;;15.73;74.34;99077.25;5055323;28;20170;-94
2023/05/15 03:48:17;;;;;;;13.73;8.10;;;;;;;15.73;74.34;99071.13;5054278;28;20197;-95
2023/05/15 03:50:43;;;;;;;16.00;8.97;;;;;;;15.71;75.17;99049.25;5054261;28;20589;-93
2023/05/15 03:53:10;;;;;;;19.00;9.97;;;;;;;15.70;74.92;99063.41;5055100;28;20186;-94
2023/05/15 03:55:37;;;;;;;12.37;8.80;;;;;;;15.69;75.29;99065.25;5054835;28;20215;-93
2023/05/15 03:58:03;;;;;;;16.23;9.33;;;;;;;15.76;75.43;99061.19;5037351;28;20191;-95
2023/05/15 04:00:28;;;;;;;14.43;8.63;;;;;;;15.76;75.14;99065.63;5053998;28;20193;-94
2023/05/15 04:02:54;;;;;;;15.90;8.53;;;;;;;15.81;75.14;99060.81;5053876;28;20177;-93
2023/05/15 04:05:20;;;;;;;18.63;9.70;;;;;;;15.79;75.17;99062.75;5054005;28;20213;-94
2023/05/15 04:07:46;;;;;;;15.80;8.97;;;;;;;15.84;75.32;99073.81;5054067;28;20260;-93
2023/05/15 04:10:11;;;;;;;13.27;8.97;;;;;;;15.89;75.47;99088.38;5054779;28;20655;-94
2023/05/15 04:12:37;;;;;;;20.33;10.83;;;;;;;16.02;75.65;99087.44;5054151;28;20178;-94
2023/05/15 04:15:23;;;;;;;15.87;9.40;;;;;;;16.04;75.56;99080.25;5053872;28;20183;-94
2023/05/15 04:17:51;;;;;;;19.00;10.87;;;;;;;16.08;75.78;99069.34;5055523;28;20180;-93
2023/05/15 04:20:18;;;;;;;19.73;11.50;;;;;;;16.01;76.18;99064.63;5054834;28;20242;-94
2023/05/15 04:22:45;;;;;;;20.03;11.33;;;;;;;16.09;76.36;99057.78;5053698;28;20180;-95
2023/05/15 04:25:12;;;;;;;23.13;12.63;;;;;;;16.17;76.42;99065.97;5070301;28;20614;-94
2023/05/15 04:27:38;;;;;;;23.60;13.47;;;;;;;16.10;76.65;99070.06;5070430;28;20198;-95
2023/05/15 04:30:05;;;;;;;21.30;12.53;;;;;;;16.09;76.83;99071.00;5050514;28;20199;-94
2023/05/15 04:32:32;;;;;;;19.00;12.10;;;;;;;16.09;76.80;99073.63;5035011;28;20191;-95
2023/05/15 04:35:02;;;;;;;19.97;11.23;;;;;;;16.11;76.91;99071.75;5050118;28;20192;-94
2023/05/15 04:37:28;;;;;;;18.97;12.30;;;;;;;16.25;76.79;99065.38;5037692;28;20172;-94
2023/05/15 04:39:54;;;;;;;19.70;11.27;;;;;;;16.34;76.30;99060.25;5053193;28;20202;-94
2023/05/15 04:42:19;;;;;;;20.73;11.97;;;;;;;16.49;75.54;99077.56;5053344;28;20258;-93
2023/05/15 04:44:45;;;;;;;18.93;10.83;;;;;;;16.58;75.04;99062.81;5053289;28;20213;-93
2023/05/15 04:47:11;;;;;;;16.80;10.47;;;;;;;16.67;75.27;99072.66;5049510;28;20235;-93
2023/05/15 04:49:37;;;;;;;19.77;11.67;;;;;;;16.77;73.97;99070.97;5049903;28;20184;-93
2023/05/15 04:52:03;;;;;;;17.27;9.77;;;;;;;16.78;73.84;99061.25;5053047;28;20189;-93
2023/05/15 04:54:28;;;;;;;15.00;9.80;;;;;;;16.86;73.82;99049.09;5073007;28;20219;-92
2023/05/15 04:56:56;;;;;;;17.80;10.73;;;;;;;16.83;73.46;99059.06;5073881;28;20221;-95
2023/05/15 04:59:27;;;;;;;18.73;9.97;;;;;;;16.86;73.31;99067.63;5073004;28;20673;-93
2023/05/15 05:01:53;;;;;;;15.33;9.20;;;;;;;16.86;74.33;99080.84;5066382;28;20648;-93
2023/05/15 05:04:19;;;;;;;15.57;10.13;;;;;;;17.01;73.88;99089.38;5069544;28;20177;-93
2023/05/15 05:06:47;;;;;;;14.20;8.97;;;;;;;17.04;74.33;99086.50;5052720;28;20576;-94
2023/05/15 05:09:13;;;;;;;16.10;9.77;;;;;;;17.22;73.74;99092.16;5053729;28;20200;-94
2023/05/15 05:11:42;;;;;;;16.57;10.17;;;;;;;17.33;72.62;99100.91;5064491;28;20185;-93
2023/05/15 05:14:12;;;;;;;19.23;10.00;;;;;;;17.21;73.60;99099.25;5032882;28;20225;-94
2023/05/15 05:16:38;;;;;;;19.40;10.93;;;;;;;17.36;72.72;99111.25;5035545;28;20204;-93
2023/05/15 05:19:04;;;;;;;18.77;10.53;;;;;;;17.46;71.98;99100.75;5043164;28;20552;-93
2023/05/15 05:21:30;;;;;;;19.40;11.07;;;;;;;17.52;71.88;99092.31;5051776;28;20284;-94
2023/05/15 05:23:56;;;;;;;21.30;12.00;;;;;;;17.50;71.75;99081.84;5035963;28;20182;-94
2023/05/15 05:26:22;;;;;;;18.40;11.97;;;;;;;17.55;72.31;99089.44;5041590;28;20537;-93
2023/05/15 05:28:47;;;;;;;22.37;12.10;;;;;;;17.52;72.58;99094.94;5038597;28;20181;-93
2023/05/15 05:31:13;;;;;;;23.40;13.20;;;;;;;17.42;72.68;99094.88;5056995;28;20218;-94
2023/05/15 05:33:39;;;;;;;21.13;11.70;;;;;;;17.60;72.06;99097.84;5052177;28;20177;-93
2023/05/15 05:36:04;;;;;;;18.03;12.20;;;;;;;17.67;71.92;99106.97;5051816;28;20252;-94
2023/05/15 05:38:31;;;;;;;20.57;13.07;;;;;;;17.61;71.92;99094.25;5036108;28;20205;-94
2023/05/15 05:40:56;;;;;;;21.97;13.37;;;;;;;17.68;72.23;99083.00;5048709;28;20230;-94
2023/05/15 05:43:22;;;;;;;20.27;13.20;;;;;;;17.73;71.73;99072.88;5041827;28;20332;-94
2023/05/15 05:45:47;;;;;;;22.57;13.03;;;;;;;17.76;72.21;99077.91;5052296;28;20343;-94
2023/05/15 05:48:13;;;;;;;20.93;13.50;;;;;;;17.84;70.34;99079.09;5056566;28;20201;-94
2023/05/15 05:50:39;;;;;;;22.27;13.50;;;;;;;17.89;70.74;99082.19;5056563;28;20181;-95
2023/05/15 05:53:05;;;;;;;22.53;12.87;;;;;;;17.79;70.93;99074.16;5056573;28;20189;-95
2023/05/15 05:55:30;;;;;;;17.10;11.07;;;;;;;17.86;70.48;99067.38;5073149;28;20188;-93
2023/05/15 05:57:56;;;;;;;20.47;12.63;;;;;;;17.90;70.75;99065.31;5056410;28;20176;-94
2023/05/15 06:00:22;;;;;;;17.13;10.57;;;;;;;17.98;71.37;99074.31;5045836;28;20618;-93
2023/05/15 06:02:51;;;;;;;23.77;12.57;;;;;;;18.09;70.23;99082.22;5036643;28;20179;-94
2023/05/15 06:05:17;;;;;;;20.37;12.10;;;;;;;18.13;70.08;99085.44;5036463;28;20202;-94
2023/05/15 06:07:43;;;;;;;16.17;10.77;;;;;;;18.30;69.41;99079.53;5044545;28;20302;-94
2023/05/15 06:10:08;;;;;;;17.87;11.03;;;;;;;18.43;68.97;99080.19;5056923;28;20174;-93
2023/05/15 06:12:34;;;;;;;17.43;10.30;;;;;;;18.43;68.24;99088.16;5055945;28;20189;-93
2023/05/15 06:14:59;;;;;;;14.53;8.90;;;;;;;18.37;67.94;99086.00;5054354;28;20192;-94
2023/05/15 06:17:25;;;;;;;15.23;9.63;;;;;;;18.30;67.34;99084.84;5055814;28;20188;-94
2023/05/15 06:19:50;;;;;;;17.23;9.87;;;;;;;18.23;67.67;99078.41;5056966;28;20196;-93
2023/05/15 06:22:16;;;;;;;14.60;9.43;;;;;;;18.17;68.27;99076.25;5072476;28;20178;-94
2023/05/15 06:24:41;;;;;;;18.67;11.17;;;;;;;18.10;68.69;99085.69;5055891;28;20600;-93
2023/05/15 06:27:07;;;;;;;15.57;10.73;;;;;;;17.98;69.48;99092.03;5064261;28;20223;-93
2023/05/15 06:29:32;;;;;;;17.27;11.20;;;;;;;18.00;69.99;99103.38;5075940;28;20177;-93
2023/05/15 06:31:58;;;;;;;18.77;11.37;;;;;;;18.06;70.84;99105.47;5075657;28;20515;-93
2023/05/15 06:34:23;;;;;;;21.70;11.53;;;;;;;18.10;70.44;99101.63;5075624;28;20177;-94
2023/05/15 06:36:48;;;;;;;18.67;11.07;;;;;;;18.26;69.94;99094.88;5059648;28;20186;-93
2023/05/15 06:39:14;;;;;;;22.27;11.93;;;;;;;18.43;69.38;99093.44;5055232;28;20251;-95
2023/05/15 06:41:39;;;;;;;21.17;11.70;;;;;;;18.57;69.58;99095.81;5056267;28;20185;-94
2023/05/15 06:44:05;;;;;;;18.37;11.37;;;;;;;18.64;69.05;99102.28;5043655;28;20182;-93
2023/05/15 06:46:30;;;;;;;16.67;11.80;;;;;;;18.61;68.92;99107.84;5059157;28;20216;-94
2023/05/15 06:48:56;;;;;;;20.20;12.97;;;;;;;18.76;67.79;99106.50;5062186;28;20281;-94
2023/05/15 06:51:21;;;;;;;19.00;10.73;;;;;;;18.72;67.40;99105.09;5055243;28;20516;-95
2023/05/15 06:53:47;;;;;;;18.17;10.43;;;;;;;18.74;67.06;99084.56;5054302;28;20281;-95
2023/05/15 06:56:15;;;;;;;16.67;10.43;;;;;;;18.87;66.93;99071.91;5054591;28;20644;-95
2023/05/15 06:58:40;;;;;;;19.87;11.67;;;;;;;18.99;66.54;99067.34;5040093;28;20213;-95
2023/05/15 07:01:08;;;;;;;18.57;11.07;;;;;;;18.97;66.51;99071.94;5035443;28;20212;-94
2023/05/15 07:03:33;;;;;;;23.60;11.93;;;;;;;18.98;66.43;99079.78;5061074;28;20190;-95
2023/05/15 07:05:59;;;;;;;19.03;11.13;;;;;;;19.05;66.51;99079.25;5055475;28;20173;-95
2023/05/15 07:08:25;;;;;;;19.03;12.93;;;;;;;18.96;66.80;99078.22;5054944;28;20177;-94
2023/05/15 07:10:51;;;;;;;17.63;11.00;;;;;;;18.92;66.90;99087.44;5054747;28;20215;-93
2023/05/15 07:13:17;;;;;;;22.60;11.97;;;;;;;19.00;66.13;99085.78;5055309;28;20205;-94
2023/05/15 07:15:43;;;;;;;17.50;10.37;;;;;;;19.01;67.91;99076.84;5052830;28;20213;-95
2023/05/15 07:18:08;;;;;;;20.30;11.23;;;;;;;19.12;66.33;99078.56;5072093;28;20208;-95
2023/05/15 07:20:34;;;;;;;23.43;11.70;;;;;;;19.12;67.32;99075.06;5055859;28;20257;-96
2023/05/15 07:22:59;;;;;;;21.53;12.03;;;;;;;19.40;65.96;99069.00;5064221;28;20179;-95
2023/05/15 07:25:30;;;;;;;16.20;10.33;;;;;;;19.52;64.60;99075.88;5059096;28;20629;-94
2023/05/15 07:27:58;;;;;;;15.77;10.40;;;;;;;19.68;63.68;99073.50;5054740;28;20649;-95
2023/05/15 07:30:24;;;;;;;18.63;11.17;;;;;;;19.75;63.35;99071.13;5055736;28;20181;-95
2023/05/15 07:32:50;;;;;;;20.73;11.53;;;;;;;19.83;63.46;99069.47;5056305;28;20190;-96
2023/05/15 07:35:15;;;;;;;21.03;12.87;;;;;;;19.86;63.49;99066.53;5055407;28;20191;-95
2023/05/15 07:37:41;;;;;;;17.80;11.37;;;;;;;19.99;63.83;99060.91;5054692;28;20187;-95
2023/05/15 07:40:07;;;;;;;16.93;11.10;;;;;;;19.99;61.75;99056.44;5055219;28;20208;-95
2023/05/15 07:42:32;;;;;;;19.20;11.23;;;;;;;20.08;62.17;99060.03;5055271;28;20200;-95
2023/05/15 07:44:58;;;;;;;14.90;10.03;;;;;;;20.14;64.02;99055.00;5053974;28;20182;-95
2023/05/15 07:47:26;;;;;;;17.43;10.63;;;;;;;20.40;62.86;99044.59;5053748;28;20212;-95
2023/05/15 07:49:59;;;;;;;20.43;12.27;;;;;;;20.42;61.31;99052.44;5055530;28;20615;-95
2023/05/15 07:52:26;;;;;;;18.67;11.77;;;;;;;20.44;61.43;99051.31;5053805;28;20566;-95
2023/05/15 07:54:51;;;;;;;17.90;11.90;;;;;;;20.54;61.60;99062.78;5054069;28;20200;-96
2023/05/15 07:57:17;;;;;;;15.87;9.80;;;;;;;20.54;62.02;99056.63;5070451;28;20174;-95
2023/05/15 07:59:43;;;;;;;15.67;10.70;;;;;;;20.60;63.37;99058.69;5053615;28;20284;-95
2023/05/15 08:02:08;;;;;;;17.20;10.73;;;;;;;20.84;62.02;99064.34;5054859;28;20192;-96
2023/05/15 08:04:34;;;;;;;18.83;10.40;;;;;;;20.96;61.42;99057.00;5054251;28;20189;-95
2023/05/15 08:06:59;;;;;;;21.67;10.03;;;;;;;20.96;62.40;99057.00;5038896;28;20655;-95
2023/05/15 08:09:25;;;;;;;14.33;9.40;;;;;;;21.29;60.24;99062.59;5059761;28;20193;-94
2023/05/15 08:11:50;;;;;;;15.97;9.57;;;;;;;21.40;58.01;99056.22;5054173;28;20182;-94
2023/05/15 08:14:16;;;;;;;16.43;9.10;;;;;;;21.39;59.16;99058.03;5054604;28;20264;-95
2023/05/15 08:16:42;;;;;;;12.97;8.90;;;;;;;21.44;59.81;99053.09;5054238;28;20637;-96
2023/05/15 08:19:09;;;;;;;12.70;8.60;;;;;;;21.64;59.28;99050.28;5054337;28;20177;-95
2023/05/15 08:21:34;;;;;;;12.57;8.57;;;;;;;21.77;56.69;99053.41;5055564;28;20644;-95
2023/05/15 08:24:00;;;;;;;15.63;9.43;;;;;;;21.77;58.56;99042.75;5053667;28;20722;-95
2023/05/15 08:26:25;;;;;;;11.83;7.73;;;;;;;21.66;56.95;99042.97;5054156;28;20201;-96
2023/05/15 08:28:51;;;;;;;13.77;8.70;;;;;;;21.45;57.89;99037.94;5053786;28;20206;-95
2023/05/15 08:31:17;;;;;;;14.00;7.67;;;;;;;21.57;57.85;99035.88;5054013;28;20204;-95
2023/05/15 08:33:44;;;;;;;12.80;8.30;;;;;;;21.80;57.75;99039.78;5053306;28;20306;-94
2023/05/15 08:36:10;;;;;;;13.83;7.70;;;;;;;21.76;56.79;99041.91;5048780;28;20278;-95
2023/05/15 08:38:36;;;;;;;13.53;8.03;;;;;;;21.88;57.35;99045.22;5053698;28;20234;-95
2023/05/15 08:41:07;;;;;;;12.47;7.90;;;;;;;21.62;57.11;99047.75;5053435;28;20185;-94
2023/05/15 08:43:35;;;;;;;13.77;7.13;;;;;;;21.51;58.86;99052.50;5047466;28;20194;-96
2023/05/15 08:46:01;;;;;;;13.07;7.93;;;;;;;21.67;58.21;99058.00;5054074;28;20635;-95
2023/05/15 08:48:28;;;;;;;11.90;6.73;;;;;;;21.94;57.29;99052.59;5054232;28;20204;-95
2023/05/15 08:50:57;;;;;;;15.03;8.23;;;;;;;22.16;57.16;99052.09;5037029;28;20177;-95
2023/05/15 08:53:23;;;;;;;11.40;7.87;;;;;;;22.00;56.86;99059.97;5038068;28;20200;-95
2023/05/15 08:55:49;;;;;;;14.77;8.17;;;;;;;21.97;56.88;99052.28;5058975;28;20184;-95
2023/05/15 08:58:15;;;;;;;11.97;7.87;;;;;;;22.27;55.61;99048.34;5062500;28;20182;-95
2023/05/15 09:00:41;;;;;;;14.83;8.60;;;;;;;22.43;56.10;99051.13;5049161;28;20284;-95
2023/05/15 09:03:53;;;;;;;13.60;8.50;;;;;;;22.56;55.23;99040.84;5038855;28;20213;-95
2023/05/15 09:06:23;;;;;;;12.57;8.13;;;;;;;22.51;55.81;99033.28;5051116;28;20215;-95
2023/05/15 09:08:52;;;;;;;13.17;7.90;;;;;;;22.60;55.81;99029.69;5053821;28;20704;-95
2023/05/15 09:11:18;;;;;;;13.70;8.43;;;;;;;22.67;54.60;99026.41;5066721;28;20197;-95
2023/05/15 09:13:44;;;;;;;13.13;8.10;;;;;;;22.60;55.41;99031.50;5056073;28;20592;-95
2023/05/15 09:16:09;;;;;;;14.03;8.10;;;;;;;22.67;54.03;99005.03;5049643;28;20189;-95
2023/05/15 09:18:37;;;;;;;13.43;7.93;;;;;;;22.67;52.26;99013.06;5055068;28;20649;-95
2023/05/15 09:21:24;;;;;;;11.80;7.50;;;;;;;22.53;52.52;99009.97;5056458;28;20189;-95
2023/05/15 09:23:50;;;;;;;15.80;8.23;;;;;;;22.53;53.13;99001.09;5042898;28;20289;-96
2023/05/15 09:26:16;;;;;;;16.97;7.83;;;;;;;22.52;53.56;99008.28;5064777;28;20261;-94
2023/05/15 09:28:42;;;;;;;11.90;7.43;;;;;;;22.58;52.61;99007.66;5037636;28;20194;-93
2023/05/15 09:31:08;;;;;;;10.80;7.83;;;;;;;22.61;52.54;99011.81;5041679;28;20185;-94
2023/05/15 09:33:41;;;;;;;12.13;6.80;;;;;;;22.41;56.39;99016.53;5069710;28;20181;-93
2023/05/15 09:36:07;;;;;;;13.23;7.50;;;;;;;22.60;54.67;98999.47;5049026;28;20197;-94
2023/05/15 09:38:41;;;;;;;12.77;7.60;;;;;;;22.84;54.28;98996.94;5054695;28;20189;-96
2023/05/15 09:41:11;;;;;;;11.30;6.90;;;;;;;22.95;53.65;98987.78;5057873;28;20185;-94
2023/05/15 09:43:37;;;;;;;11.83;6.80;;;;;;;23.12;52.80;99000.19;5052793;28;20173;-94
2023/05/15 09:46:07;;;;;;;12.83;7.03;;;;;;;23.19;50.76;99007.38;5053581;28;20270;-94
2023/05/15 09:48:37;;;;;;;10.60;6.33;;;;;;;23.18;50.52;98999.53;5033148;28;20182;-93
2023/05/15 09:51:07;;;;;;;8.90;6.33;;;;;;;23.24;51.84;99004.25;5033244;28;20534;-94
2023/05/15 09:54:00;;;;;;;10.47;5.97;;;;;;;23.31;51.20;98986.53;5043977;28;20189;-95
2023/05/15 09:56:36;;;;;;;15.30;6.83;;;;;;;23.44;51.54;98976.22;5059215;28;20289;-94
2023/05/15 09:59:26;;;;;;;9.37;5.93;;;;;;;23.22;50.70;98966.09;5043088;28;20226;-95
2023/05/15 10:01:53;;;;;;;11.07;6.90;;;;;;;23.12;52.37;98976.13;5032967;28;20273;-94
2023/05/15 10:04:20;;;;;;;9.07;5.80;;;;;;;23.27;51.60;98977.13;5055662;28;20177;-94
2023/05/15 10:06:47;;;;;;;7.87;4.80;;;;;;;23.33;51.21;98973.81;5032542;28;20671;-94
2023/05/15 10:09:17;;;;;;;8.43;5.73;;;;;;;23.43;50.28;98963.81;5032629;28;20190;-94
2023/05/15 10:11:51;;;;;;;9.00;5.00;;;;;;;23.47;49.99;98965.19;5032942;28;20182;-94
2023/05/15 10:14:20;;;;;;;11.40;5.73;;;;;;;23.62;51.21;98973.38;5032882;28;20170;-94
2023/05/15 10:16:48;;;;;;;10.00;4.33;;;;;;;23.87;50.72;98967.03;5051313;28;20166;-94
2023/05/15 10:19:29;;;;;;;7.63;4.30;;;;;;;24.07;49.43;98964.81;5052585;28;20181;-94
2023/05/15 10:22:04;;;;;;;8.67;4.70;;;;;;;24.26;49.36;98945.72;5037495;28;20174;-94
2023/05/15 10:24:32;;;;;;;8.10;5.23;;;;;;;24.29;49.47;98948.88;5052260;28;20343;-94
2023/05/15 10:27:00;;;;;;;10.63;4.80;;;;;;;24.44;50.04;98947.19;5054459;28;20209;-94
2023/05/15 10:29:28;;;;;;;10.40;5.13;;;;;;;24.41;49.73;98930.59;5055771;28;20193;-94
2023/05/15 10:31:56;;;;;;;6.73;4.30;;;;;;;24.75;48.25;98928.44;5089209;28;20197;-94
2023/05/15 10:34:30;;;;;;;10.37;5.50;;;;;;;25.00;46.37;98919.28;5055985;28;20299;-94
2023/05/15 10:36:56;;;;;;;10.83;5.23;;;;;;;24.91;46.81;98930.22;5059988;28;20196;-93
2023/05/15 10:39:28;;;;;;;7.67;4.87;;;;;;;25.00;48.38;98916.59;5056395;28;20525;-95
2023/05/15 10:42:26;;;;;;;;;;;;;;;;;;;;;
2023/05/15 10:45:17;;;;;;;7.73;4.73;;;;;;;25.21;46.32;98917.81;5022157;28;20194;-94
2023/05/15 10:47:53;;;;;;;7.00;4.33;;;;;;;25.41;45.88;98927.03;5047726;28;20209;-94
2023/05/15 10:50:22;;;;;;;6.63;4.20;;;;;;;25.52;46.43;98915.94;5055334;28;20178;-94
2023/05/15 10:52:50;;;;;;;7.37;3.53;;;;;;;25.47;47.75;98923.69;5053624;28;20264;-94
2023/05/15 10:55:17;;;;;;;6.90;4.03;;;;;;;25.42;47.41;98916.13;5054542;28;20178;-94
2023/05/15 10:57:47;;;;;;;6.33;4.40;;;;;;;25.83;46.75;98913.13;5053325;28;20268;-93
2023/05/15 11:00:56;;;;;;;7.47;4.67;;;;;;;26.13;45.39;98921.06;5034787;28;20261;-94
2023/05/15 11:03:41;;;;;;;6.17;4.10;;;;;;;26.31;44.82;98901.06;5031588;28;20225;-94
2023/05/15 11:06:11;;;;;;;7.60;4.22;;;;;;;26.50;44.74;98903.16;5038689;28;20558;-94
2023/05/15 11:08:41;;;;;;;8.18;4.38;;;;;;;26.41;42.84;98901.59;5054913;28;20214;-94
2023/05/15 11:12:04;;;;;;;9.65;3.85;;;;;;;26.40;44.97;98910.66;5055889;28;20174;-93
2023/05/15 11:14:37;;;;;;;8.93;4.13;;;;;;;26.17;44.35;98930.44;5054269;28;20182;-94
2023/05/15 11:17:23;;;;;;;8.15;4.30;;;;;;;26.16;45.26;98925.22;5037092;28;20623;-94
2023/05/15 11:19:48;;;;;;;6.10;4.10;;;;;;;26.22;45.39;98925.34;5036674;28;20198;-94
2023/05/15 11:22:16;;;;;;;8.33;4.30;;;;;;;26.28;43.04;98922.91;5041048;28;20258;-94
2023/05/15 11:24:51;;;;;;;6.70;4.00;;;;;;;26.12;44.29;98916.72;5055127;28;20619;-94
2023/05/15 11:27:45;;;;;;;6.63;3.90;;;;;;;26.12;46.10;98929.28;5053154;28;20586;-93
2023/05/15 11:30:20;;;;;;;7.60;4.50;;;;;;;26.23;45.56;98916.22;5037780;28;20197;-94
2023/05/15 11:32:57;;;;;;;8.30;4.35;;;;;;;26.34;44.33;98914.94;5055818;28;20165;-94